createdAt,value
2022-10-23T00:00:58.281Z,98509.03
2022-10-23T00:03:24.773Z,98506.53
2022-10-23T00:05:51.227Z,98502.44
2022-10-23T00:08:17.709Z,98503.41
2022-10-23T00:10:44.653Z,98509.81
2022-10-23T00:13:11.072Z,98506.97
2022-10-23T00:15:37.831Z,98507.06
2022-10-23T00:18:04.762Z,98509.50
2022-10-23T00:20:31.215Z,98504.25
2022-10-23T00:22:57.679Z,98498.91
2022-10-23T00:25:24.128Z,98501.31
2022-10-23T00:27:50.548Z,98506.25
2022-10-23T00:30:17.034Z,98504.34
2022-10-23T00:32:43.465Z,98499.19
2022-10-23T00:35:09.910Z,98502.47
2022-10-23T00:37:36.332Z,98499.00
2022-10-23T00:40:04.610Z,98494.59
2022-10-23T00:42:31.068Z,98496.25
2022-10-23T00:45:19.002Z,98491.88
2022-10-23T00:47:47.273Z,98484.94
2022-10-23T00:50:14.031Z,98485.69
2022-10-23T00:52:45.139Z,98485.69
2022-10-23T00:55:11.925Z,98467.53
2022-10-23T00:57:42.217Z,98479.56
2022-10-23T01:00:09.580Z,98472.69
2022-10-23T01:02:36.143Z,98476.50
2022-10-23T01:05:02.683Z,98472.56
2022-10-23T01:07:32.055Z,98472.47
2022-10-23T01:10:17.535Z,98477.69
2022-10-23T01:12:55.759Z,98475.09
2022-10-23T01:15:31.077Z,98473.34
2022-10-23T01:18:05.720Z,98467.50
2022-10-23T01:20:38.275Z,98465.47
2022-10-23T01:23:35.138Z,98464.34
2022-10-23T01:26:56.916Z,98456.72
2022-10-23T01:29:45.442Z,98450.00
2022-10-23T01:32:39.614Z,98442.16
2022-10-23T01:35:12.263Z,98445.56
2022-10-23T01:37:53.837Z,98437.88
2022-10-23T01:40:31.075Z,98441.31
2022-10-23T01:43:04.539Z,98442.28
2022-10-23T01:45:42.584Z,98441.31
2022-10-23T01:48:13.545Z,98440.50
2022-10-23T01:50:42.782Z,98441.56
2022-10-23T01:53:09.779Z,98440.97
2022-10-23T01:58:08.597Z,98425.28
2022-10-23T02:00:39.570Z,98419.78
2022-10-23T02:03:07.898Z,98421.16
2022-10-23T02:05:38.156Z,98419.63
2022-10-23T02:08:05.980Z,98419.91
2022-10-23T02:10:56.036Z,98420.16
2022-10-23T02:13:25.463Z,98416.91
2022-10-23T02:16:03.654Z,98406.66
2022-10-23T02:18:46.379Z,98411.91
2022-10-23T02:21:29.658Z,98401.84
2022-10-23T02:24:11.756Z,98403.88
2022-10-23T02:26:45.857Z,98405.00
2022-10-23T02:29:21.370Z,98398.25
2022-10-23T02:31:47.838Z,98400.94
2022-10-23T02:34:14.376Z,98405.25
2022-10-23T02:36:41.326Z,98396.78
2022-10-23T02:39:07.769Z,98400.28
2022-10-23T02:42:01.450Z,98402.00
2022-10-23T02:44:37.428Z,98404.69
2022-10-23T02:47:35.162Z,98396.09
2022-10-23T02:50:16.154Z,98402.03
2022-10-23T02:52:57.895Z,98397.97
2022-10-23T02:55:48.293Z,98397.28
2022-10-23T02:58:30.906Z,98406.75
2022-10-23T03:01:06.220Z,98405.97
2022-10-23T03:03:38.362Z,98409.41
2022-10-23T03:06:05.077Z,98403.53
2022-10-23T03:08:41.867Z,98412.19
2022-10-23T03:11:08.311Z,98405.41
2022-10-23T03:13:34.754Z,98401.16
2022-10-23T03:16:01.374Z,98397.78
2022-10-23T03:18:27.829Z,98394.44
2022-10-23T03:20:54.297Z,98391.88
2022-10-23T03:23:20.685Z,98397.06
2022-10-23T03:25:47.129Z,98392.75
2022-10-23T03:28:13.611Z,98396.19
2022-10-23T03:30:40.126Z,98393.75
2022-10-23T03:33:06.601Z,98393.00
2022-10-23T03:35:33.079Z,98387.00
2022-10-23T03:37:59.518Z,98393.94
2022-10-23T03:40:25.973Z,98382.09
2022-10-23T03:42:52.537Z,98385.53
2022-10-23T03:45:19.368Z,98381.31
2022-10-23T03:47:45.956Z,98379.50
2022-10-23T03:50:15.584Z,98380.22
2022-10-23T03:52:42.672Z,98374.09
2022-10-23T03:55:29.829Z,98379.78
2022-10-23T03:57:56.326Z,98376.13
2022-10-23T04:00:22.837Z,98367.19
2022-10-23T04:02:49.492Z,98364.66
2022-10-23T04:05:16.220Z,98373.44
2022-10-23T04:07:42.770Z,98377.03
2022-10-23T04:10:09.865Z,98379.84
2022-10-23T04:12:36.441Z,98390.50
2022-10-23T04:15:03.264Z,98388.22
2022-10-23T04:17:29.934Z,98385.06
2022-10-23T04:19:56.526Z,98385.38
2022-10-23T04:22:25.955Z,98380.69
2022-10-23T04:24:54.156Z,98385.44
2022-10-23T04:27:20.579Z,98385.22
2022-10-23T04:29:47.073Z,98384.25
2022-10-23T04:32:13.503Z,98384.97
2022-10-23T04:34:39.921Z,98376.19
2022-10-23T04:37:06.391Z,98372.63
2022-10-23T04:39:32.822Z,98363.13
2022-10-23T04:41:59.237Z,98370.44
2022-10-23T04:44:25.644Z,98378.31
2022-10-23T04:46:52.103Z,98372.03
2022-10-23T04:49:18.521Z,98370.44
2022-10-23T04:51:44.960Z,98365.25
2022-10-23T04:54:11.436Z,98363.50
2022-10-23T04:56:38.016Z,98362.59
2022-10-23T05:02:26.629Z,98361.88
2022-10-23T05:04:53.317Z,98374.03
2022-10-23T05:09:46.105Z,98383.47
2022-10-23T05:12:12.554Z,98371.28
2022-10-23T05:14:39.142Z,98368.84
2022-10-23T05:17:29.265Z,98364.63
2022-10-23T05:19:57.735Z,98369.78
2022-10-23T05:22:27.112Z,98375.94
2022-10-23T05:24:54.647Z,98363.00
2022-10-23T05:27:21.184Z,98360.63
2022-10-23T05:29:47.707Z,98364.94
2022-10-23T05:32:15.972Z,98367.56
2022-10-23T05:34:43.044Z,98371.94
2022-10-23T05:37:12.787Z,98372.16
2022-10-23T05:39:39.376Z,98379.91
2022-10-23T05:42:05.868Z,98382.31
2022-10-23T05:44:32.314Z,98382.38
2022-10-23T05:46:58.832Z,98386.81
2022-10-23T05:49:26.051Z,98373.97
2022-10-23T05:51:52.927Z,98363.59
2022-10-23T05:54:19.395Z,98352.38
2022-10-23T05:56:45.853Z,98351.56
2022-10-23T05:59:12.315Z,98351.66
2022-10-23T06:01:38.959Z,98355.13
2022-10-23T06:04:05.952Z,98364.56
2022-10-23T06:06:32.438Z,98357.56
2022-10-23T06:08:58.991Z,98360.09
2022-10-23T06:11:25.520Z,98360.81
2022-10-23T06:13:52.175Z,98359.94
2022-10-23T06:16:21.517Z,98363.22
2022-10-23T06:18:48.539Z,98367.47
2022-10-23T06:21:15.786Z,98361.00
2022-10-23T06:23:44.285Z,98361.88
2022-10-23T06:26:13.743Z,98367.66
2022-10-23T06:28:40.725Z,98368.38
2022-10-23T06:31:09.198Z,98370.63
2022-10-23T06:33:35.773Z,98369.25
2022-10-23T06:36:03.692Z,98375.38
2022-10-23T06:38:34.558Z,98380.78
2022-10-23T06:41:01.037Z,98379.22
2022-10-23T06:43:27.493Z,98386.41
2022-10-23T06:45:53.985Z,98386.69
2022-10-23T06:48:20.457Z,98377.59
2022-10-23T06:50:46.888Z,98377.03
2022-10-23T06:53:13.457Z,98388.44
2022-10-23T06:55:40.213Z,98386.44
2022-10-23T06:58:10.645Z,98384.75
2022-10-23T07:00:40.199Z,98389.03
2022-10-23T07:03:09.022Z,98379.88
2022-10-23T07:05:35.526Z,98378.38
2022-10-23T07:08:04.706Z,98389.22
2022-10-23T07:10:31.164Z,98384.63
2022-10-23T07:13:00.748Z,98381.91
2022-10-23T07:15:28.206Z,98376.66
2022-10-23T07:17:55.297Z,98373.66
2022-10-23T07:20:21.747Z,98363.97
2022-10-23T07:22:55.967Z,98363.44
2022-10-23T07:25:23.736Z,98355.47
2022-10-23T07:27:50.589Z,98358.88
2022-10-23T07:30:17.373Z,98369.66
2022-10-23T07:32:44.649Z,98364.28
2022-10-23T07:37:44.591Z,98360.72
2022-10-23T07:40:11.743Z,98357.59
2022-10-23T07:42:38.899Z,98368.72
2022-10-23T07:45:07.426Z,98364.91
2022-10-23T07:47:34.117Z,98355.38
2022-10-23T07:50:00.968Z,98359.53
2022-10-23T07:52:30.838Z,98357.38
2022-10-23T07:54:59.956Z,98352.97
2022-10-23T07:57:26.385Z,98360.09
2022-10-23T07:59:52.884Z,98353.28
2022-10-23T08:02:20.724Z,98356.94
2022-10-23T08:04:49.479Z,98353.91
2022-10-23T08:07:15.950Z,98349.31
2022-10-23T08:09:42.369Z,98346.53
2022-10-23T08:12:09.647Z,98339.03
2022-10-23T08:14:36.051Z,98334.16
2022-10-23T08:17:03.217Z,98341.63
2022-10-23T08:19:29.797Z,98330.03
2022-10-23T08:21:57.259Z,98325.69
2022-10-23T08:24:23.848Z,98324.56
2022-10-23T08:26:50.531Z,98323.91
2022-10-23T08:29:17.259Z,98320.78
2022-10-23T08:31:43.866Z,98320.28
2022-10-23T08:34:10.364Z,98319.66
2022-10-23T08:36:39.160Z,98322.63
2022-10-23T08:39:06.684Z,98319.44
2022-10-23T08:41:38.557Z,98321.09
2022-10-23T08:44:28.753Z,98314.78
2022-10-23T08:47:10.541Z,98313.34
2022-10-23T08:49:46.163Z,98312.84
2022-10-23T08:52:23.488Z,98322.88
2022-10-23T08:55:02.614Z,98316.81
2022-10-23T08:57:40.032Z,98307.69
2022-10-23T09:00:14.549Z,98306.78
2022-10-23T09:02:50.384Z,98306.03
2022-10-23T09:05:25.012Z,98303.22
2022-10-23T09:08:34.073Z,98310.31
2022-10-23T09:11:02.463Z,98294.44
2022-10-23T09:13:39.057Z,98306.97
2022-10-23T09:16:20.511Z,98305.09
2022-10-23T09:18:48.910Z,98306.25
2022-10-23T09:21:15.762Z,98308.63
2022-10-23T09:23:42.225Z,98308.44
2022-10-23T09:26:16.880Z,98308.28
2022-10-23T09:29:02.348Z,98310.41
2022-10-23T09:31:28.763Z,98305.34
2022-10-23T09:34:01.503Z,98306.53
2022-10-23T09:36:29.476Z,98310.09
2022-10-23T09:38:59.420Z,98295.91
2022-10-23T09:41:37.030Z,98302.56
2022-10-23T09:44:20.776Z,98305.63
2022-10-23T09:46:53.904Z,98296.13
2022-10-23T09:49:26.240Z,98295.00
2022-10-23T09:51:55.406Z,98285.06
2022-10-23T09:54:24.136Z,98283.09
2022-10-23T09:56:53.696Z,98281.16
2022-10-23T09:59:31.128Z,98285.22
2022-10-23T10:02:00.254Z,98281.78
2022-10-23T10:04:41.124Z,98280.09
2022-10-23T10:07:53.595Z,98286.91
2022-10-23T10:10:20.124Z,98285.03
2022-10-23T10:13:01.730Z,98287.56
2022-10-23T10:15:40.266Z,98282.31
2022-10-23T10:18:28.558Z,98278.78
2022-10-23T10:21:05.437Z,98274.88
2022-10-23T10:23:47.044Z,98267.38
2022-10-23T10:26:34.707Z,98261.81
2022-10-23T10:29:13.231Z,98259.09
2022-10-23T10:31:53.838Z,98243.53
2022-10-23T10:34:41.412Z,98238.53
2022-10-23T10:37:34.882Z,98229.56
2022-10-23T10:40:23.432Z,98228.44
2022-10-23T10:43:10.997Z,98239.19
2022-10-23T10:46:07.070Z,98224.47
2022-10-23T10:48:45.176Z,98220.44
2022-10-23T10:51:22.329Z,98206.34
2022-10-23T10:53:53.756Z,98207.28
2022-10-23T10:56:25.628Z,98207.44
2022-10-23T10:59:24.388Z,98207.44
2022-10-23T11:02:02.146Z,98207.03
2022-10-23T11:04:45.597Z,98209.56
2022-10-23T11:07:18.817Z,98194.28
2022-10-23T11:09:46.266Z,98184.88
2022-10-23T11:12:23.043Z,98183.13
2022-10-23T11:14:50.327Z,98166.81
2022-10-23T11:17:38.868Z,98164.00
2022-10-23T11:20:24.107Z,98156.72
2022-10-23T11:22:54.985Z,98156.81
2022-10-23T11:25:39.691Z,98158.25
2022-10-23T11:28:29.387Z,98162.44
2022-10-23T11:31:22.774Z,98163.38
2022-10-23T11:34:04.438Z,98176.25
2022-10-23T11:37:08.988Z,98176.81
2022-10-23T11:39:39.759Z,98175.97
2022-10-23T11:42:06.130Z,98177.22
2022-10-23T11:44:47.156Z,98169.72
2022-10-23T11:47:27.968Z,98169.91
2022-10-23T11:50:09.408Z,98165.31
2022-10-23T11:53:12.600Z,98165.72
2022-10-23T11:55:38.561Z,98155.88
2022-10-23T11:58:04.921Z,98150.38
2022-10-23T12:00:34.551Z,98135.59
2022-10-23T12:03:02.008Z,98135.06
2022-10-23T12:05:34.883Z,98131.03
2022-10-23T12:08:04.178Z,98133.00
2022-10-23T12:10:36.146Z,98126.00
2022-10-23T12:13:06.421Z,98111.75
2022-10-23T12:15:36.711Z,98108.00
2022-10-23T12:18:17.297Z,98111.03
2022-10-23T12:20:52.286Z,98111.34
2022-10-23T12:23:57.045Z,98111.03
2022-10-23T12:26:28.986Z,98099.22
2022-10-23T12:29:16.483Z,98095.25
2022-10-23T12:31:47.978Z,98096.06
2022-10-23T12:34:42.788Z,98100.47
2022-10-23T12:37:09.198Z,98101.84
2022-10-23T12:39:38.983Z,98105.91
2022-10-23T12:42:11.069Z,98096.69
2022-10-23T12:44:37.518Z,98098.69
2022-10-23T12:47:04.597Z,98090.00
2022-10-23T12:49:33.689Z,98077.56
2022-10-23T12:52:06.035Z,98079.66
2022-10-23T12:54:38.278Z,98075.25
2022-10-23T12:57:22.086Z,98061.47
2022-10-23T12:59:49.996Z,98060.66
2022-10-23T13:02:28.607Z,98068.50
2022-10-23T13:04:58.411Z,98059.69
2022-10-23T13:07:27.774Z,98063.88
2022-10-23T13:09:55.167Z,98056.97
2022-10-23T13:12:24.513Z,98053.22
2022-10-23T13:15:03.232Z,98040.16
2022-10-23T13:17:46.102Z,98060.94
2022-10-23T13:20:22.540Z,98063.47
2022-10-23T13:22:59.304Z,98059.09
2022-10-23T13:25:32.838Z,98049.06
2022-10-23T13:28:08.600Z,98049.06
2022-10-23T13:30:40.291Z,98042.78
2022-10-23T13:33:25.969Z,98039.84
2022-10-23T13:36:04.132Z,98033.59
2022-10-23T13:38:36.509Z,98030.44
2022-10-23T13:41:05.068Z,98036.91
2022-10-23T13:43:34.097Z,98021.03
2022-10-23T13:46:01.144Z,98011.59
2022-10-23T13:48:28.205Z,98020.59
2022-10-23T13:50:58.224Z,98022.56
2022-10-23T13:53:24.650Z,98022.56
2022-10-23T13:55:54.927Z,98016.19
2022-10-23T13:58:24.330Z,98013.03
2022-10-23T14:00:51.102Z,98010.25
2022-10-23T14:03:18.543Z,98019.13
2022-10-23T14:05:44.970Z,98017.44
2022-10-23T14:08:11.614Z,98014.41
2022-10-23T14:10:38.087Z,98018.25
2022-10-23T14:13:04.703Z,98001.97
2022-10-23T14:15:31.127Z,98006.16
2022-10-23T14:17:59.518Z,98013.25
2022-10-23T14:20:27.911Z,98006.03
2022-10-23T14:22:54.482Z,98007.78
2022-10-23T14:25:22.260Z,98011.03
2022-10-23T14:27:49.039Z,98004.13
2022-10-23T14:30:15.903Z,98004.63
2022-10-23T14:32:42.737Z,98004.88
2022-10-23T14:35:09.669Z,98004.38
2022-10-23T14:37:36.204Z,98000.38
2022-10-23T14:40:02.751Z,97997.81
2022-10-23T14:42:34.086Z,97989.56
2022-10-23T14:45:02.457Z,97985.97
2022-10-23T14:47:28.964Z,97983.91
2022-10-23T14:49:56.176Z,97982.69
2022-10-23T14:52:23.490Z,97982.25
2022-10-23T14:54:53.505Z,97972.19
2022-10-23T14:57:22.237Z,97974.34
2022-10-23T14:59:49.504Z,97970.94
2022-10-23T15:02:16.902Z,97982.00
2022-10-23T15:04:43.515Z,97976.16
2022-10-23T15:07:10.040Z,97966.75
2022-10-23T15:09:37.413Z,97965.94
2022-10-23T15:12:04.666Z,97966.41
2022-10-23T15:14:31.218Z,97970.28
2022-10-23T15:16:57.690Z,97963.63
2022-10-23T15:19:24.309Z,97964.63
2022-10-23T15:21:51.480Z,97977.94
2022-10-23T15:24:18.568Z,97969.06
2022-10-23T15:26:45.313Z,97966.66
2022-10-23T15:29:12.824Z,97965.06
2022-10-23T15:31:40.829Z,97961.16
2022-10-23T15:34:18.854Z,97969.16
2022-10-23T15:36:47.065Z,97972.28
2022-10-23T15:39:16.090Z,97970.03
2022-10-23T15:41:43.242Z,97970.03
2022-10-23T15:44:14.102Z,97969.22
2022-10-23T15:46:40.710Z,97974.88
2022-10-23T15:49:08.515Z,97974.66
2022-10-23T15:51:36.858Z,97966.94
2022-10-23T15:54:05.622Z,97969.63
2022-10-23T15:56:32.383Z,97972.78
2022-10-23T15:58:59.067Z,97971.81
2022-10-23T16:01:25.653Z,97967.00
2022-10-23T16:03:52.456Z,97969.94
2022-10-23T16:06:20.471Z,97975.41
2022-10-23T16:08:47.128Z,97969.06
2022-10-23T16:11:18.704Z,97967.28
2022-10-23T16:13:45.598Z,97966.03
2022-10-23T16:16:13.331Z,97956.47
2022-10-23T16:18:39.931Z,97950.72
2022-10-23T16:21:07.324Z,97953.31
2022-10-23T16:23:34.580Z,97946.59
2022-10-23T16:26:05.588Z,97936.34
2022-10-23T16:28:32.114Z,97934.84
2022-10-23T16:30:59.073Z,97933.59
2022-10-23T16:33:25.695Z,97930.81
2022-10-23T16:35:52.402Z,97928.50
2022-10-23T16:38:19.255Z,97924.22
2022-10-23T16:40:51.232Z,97919.59
2022-10-23T16:43:17.774Z,97919.28
2022-10-23T16:45:44.348Z,97920.41
2022-10-23T16:48:11.118Z,97923.13
2022-10-23T16:50:41.828Z,97921.56
2022-10-23T16:53:08.607Z,97922.47
2022-10-23T16:55:35.199Z,97902.44
2022-10-23T16:58:01.851Z,97895.00
2022-10-23T17:00:34.841Z,97894.00
2022-10-23T17:03:05.042Z,97888.28
2022-10-23T17:05:35.266Z,97913.34
2022-10-23T17:08:02.012Z,97923.47
2022-10-23T17:10:31.161Z,97923.47
2022-10-23T17:12:57.589Z,97923.22
2022-10-23T17:15:23.996Z,97912.09
2022-10-23T17:17:50.585Z,97915.59
2022-10-23T17:20:17.118Z,97925.34
2022-10-23T17:22:43.535Z,97912.59
2022-10-23T17:25:10.314Z,97918.28
2022-10-23T17:27:36.774Z,97911.44
2022-10-23T17:30:03.872Z,97916.03
2022-10-23T17:32:30.424Z,97902.47
2022-10-23T17:34:56.902Z,97910.19
2022-10-23T17:37:23.371Z,97919.03
2022-10-23T17:39:49.807Z,97910.25
2022-10-23T17:42:16.258Z,97906.72
2022-10-23T17:44:42.789Z,97923.47
2022-10-23T17:47:09.229Z,97927.00
2022-10-23T17:49:35.690Z,97922.97
2022-10-23T17:52:02.193Z,97921.97
2022-10-23T17:54:29.067Z,97927.34
2022-10-23T17:56:55.697Z,97926.72
2022-10-23T17:59:22.334Z,97933.69
2022-10-23T18:01:49.559Z,97919.63
2022-10-23T18:04:18.300Z,97914.50
2022-10-23T18:06:48.357Z,97905.22
2022-10-23T18:09:15.719Z,97909.38
2022-10-23T18:11:46.863Z,97907.03
2022-10-23T18:14:15.527Z,97906.47
2022-10-23T18:16:42.002Z,97884.69
2022-10-23T18:19:08.679Z,97857.06
2022-10-23T18:21:35.904Z,97858.81
2022-10-23T18:24:03.203Z,97883.13
2022-10-23T18:26:32.137Z,97887.44
2022-10-23T18:28:59.333Z,97884.53
2022-10-23T18:31:29.659Z,97892.34
2022-10-23T18:33:58.410Z,97885.63
2022-10-23T18:36:27.346Z,97887.47
2022-10-23T18:41:25.831Z,97890.06
2022-10-23T18:43:54.082Z,97897.75
2022-10-23T18:46:20.760Z,97897.69
2022-10-23T18:48:47.854Z,97883.94
2022-10-23T18:51:20.383Z,97879.75
2022-10-23T18:53:47.643Z,97900.69
2022-10-23T18:56:23.661Z,97887.53
2022-10-23T18:58:51.171Z,97873.91
2022-10-23T19:01:19.351Z,97886.88
2022-10-23T19:03:45.930Z,97886.81
2022-10-23T19:06:13.396Z,97884.38
2022-10-23T19:08:42.277Z,97885.28
2022-10-23T19:11:10.417Z,97874.91
2022-10-23T19:13:39.486Z,97869.53
2022-10-23T19:16:12.732Z,97874.75
2022-10-23T19:18:42.975Z,97864.19
2022-10-23T19:21:09.664Z,97856.06
2022-10-23T19:23:37.995Z,97858.91
2022-10-23T19:26:08.930Z,97861.25
2022-10-23T19:28:42.690Z,97862.28
2022-10-23T19:31:10.448Z,97851.38
2022-10-23T19:33:38.471Z,97849.69
2022-10-23T19:36:11.215Z,97846.00
2022-10-23T19:38:41.458Z,97865.13
2022-10-23T19:41:08.906Z,97864.97
2022-10-23T19:43:37.631Z,97882.44
2022-10-23T19:46:09.329Z,97889.22
2022-10-23T19:48:42.271Z,97926.31
2022-10-23T19:51:09.451Z,97939.13
2022-10-23T19:53:36.353Z,97946.25
2022-10-23T19:56:06.005Z,97961.75
2022-10-23T19:58:32.862Z,97994.16
2022-10-23T20:01:06.405Z,97969.22
2022-10-23T20:03:33.048Z,97983.44
2022-10-23T20:05:59.563Z,97994.13
2022-10-23T20:08:25.990Z,98009.63
2022-10-23T20:10:52.528Z,98051.38
2022-10-23T20:13:20.429Z,98033.53
2022-10-23T20:15:47.424Z,98052.59
2022-10-23T20:18:13.902Z,98047.41
2022-10-23T20:20:41.615Z,98034.59
2022-10-23T20:23:08.337Z,98035.50
2022-10-23T20:25:34.974Z,98037.53
2022-10-23T20:28:01.488Z,98030.63
2022-10-23T20:30:28.143Z,98031.38
2022-10-23T20:32:54.562Z,98036.56
2022-10-23T20:35:21.088Z,98035.66
2022-10-23T20:37:47.488Z,98038.09
2022-10-23T20:40:13.877Z,98045.72
2022-10-23T20:42:40.311Z,98038.72
2022-10-23T20:45:07.177Z,98050.47
2022-10-23T20:47:33.609Z,98047.53
2022-10-23T20:50:00.020Z,98030.19
2022-10-23T20:52:29.388Z,98032.78
2022-10-23T20:54:55.907Z,98024.84
2022-10-23T20:57:22.324Z,98022.84
2022-10-23T20:59:48.722Z,98019.75
2022-10-23T21:02:15.279Z,98022.34
2022-10-23T21:04:41.832Z,98017.06
2022-10-23T21:07:10.333Z,98040.38
2022-10-23T21:09:38.007Z,98054.28
2022-10-23T21:12:06.376Z,98049.03
2022-10-23T21:14:33.015Z,98016.00
2022-10-23T21:16:59.464Z,98008.28
2022-10-23T21:19:26.088Z,98005.16
2022-10-23T21:21:52.549Z,98005.34
2022-10-23T21:24:18.978Z,98001.38
2022-10-23T21:26:45.570Z,98002.72
2022-10-23T21:29:20.844Z,97994.53
2022-10-23T21:31:55.649Z,97989.63
2022-10-23T21:34:23.337Z,98003.13
2022-10-23T21:39:36.174Z,98010.31
2022-10-23T21:42:02.702Z,97989.31
2022-10-23T21:44:29.117Z,97989.97
2022-10-23T21:46:55.639Z,97984.78
2022-10-23T21:49:22.142Z,97989.06
2022-10-23T21:51:48.564Z,97994.16
2022-10-23T21:54:15.114Z,97995.94
2022-10-23T21:56:47.400Z,97997.03
2022-10-23T21:59:16.750Z,98005.56
2022-10-23T22:01:45.793Z,98008.59
2022-10-23T22:04:14.398Z,98012.25
2022-10-23T22:06:42.071Z,98008.84
2022-10-23T22:09:11.660Z,98015.47
2022-10-23T22:11:38.219Z,98020.81
2022-10-23T22:14:04.894Z,98018.66
2022-10-23T22:16:31.866Z,98015.47
2022-10-23T22:18:58.319Z,98020.66
2022-10-23T22:21:27.500Z,98022.50
2022-10-23T22:23:55.565Z,98022.50
2022-10-23T22:26:25.816Z,98028.59
2022-10-23T22:28:54.552Z,98022.41
2022-10-23T22:31:23.974Z,98003.81
2022-10-23T22:33:51.728Z,98003.91
2022-10-23T22:36:18.399Z,98000.06
2022-10-23T22:38:45.224Z,97998.88
2022-10-23T22:41:11.706Z,98004.78
2022-10-23T22:43:38.390Z,98007.28
2022-10-23T22:46:13.830Z,98017.16
2022-10-23T22:48:41.271Z,98010.13
2022-10-23T22:51:10.850Z,98002.03
2022-10-23T22:53:37.538Z,97993.03
2022-10-23T22:56:09.357Z,97993.53
2022-10-23T22:58:36.633Z,97993.03
2022-10-23T23:01:09.120Z,97992.63
2022-10-23T23:03:37.055Z,97993.28
2022-10-23T23:06:05.518Z,97997.13
2022-10-23T23:08:32.650Z,97989.16
2022-10-23T23:10:59.599Z,97986.47
2022-10-23T23:13:26.337Z,97989.84
2022-10-23T23:15:52.958Z,97983.41
2022-10-23T23:18:19.560Z,97974.53
2022-10-23T23:20:47.055Z,97982.50
2022-10-23T23:23:14.166Z,97983.91
2022-10-23T23:25:45.797Z,97990.03
2022-10-23T23:28:14.304Z,97985.44
2022-10-23T23:30:41.392Z,97985.25
2022-10-23T23:33:08.953Z,97990.25
2022-10-23T23:35:43.252Z,97988.22
2022-10-23T23:38:11.376Z,98002.00
2022-10-23T23:40:38.812Z,97998.63
2022-10-23T23:43:05.520Z,98004.88
2022-10-23T23:45:32.147Z,98007.00
2022-10-23T23:47:58.921Z,98020.94
2022-10-23T23:50:26.178Z,98015.56
2022-10-23T23:52:52.561Z,98013.22
2022-10-23T23:55:19.026Z,98019.44
2022-10-23T23:57:45.746Z,98020.13
